Time;durP1;ratioP1;P1;durP2;ratioP2;P2;SDS_P1;SDS_P2;PMS_P1;PMS_P2;Temp;Humidity;BMP_temperature;BMP_pressure;BME280_temperature;BME280_humidity;BME280_pressure;Samples;Min_cycle;Max_cycle;Signal;HPM_P1;HPM_P2
2022/12/14 00:01:18;;;;;;;12.43;6.07;;;;;;;;;;4990823;28;20436;-68
2022/12/14 00:03:45;;;;;;;12.03;3.57;;;;;;;;;;4957606;28;20448;-68
2022/12/14 00:06:12;;;;;;;10.03;5.00;;;;;;;;;;4990861;28;20467;-68
2022/12/14 00:08:39;;;;;;;14.77;6.40;;;;;;;;;;4991043;28;20470;-68
2022/12/14 00:11:07;;;;;;;14.90;5.80;;;;;;;;;;4990979;28;20436;-68
2022/12/14 00:13:34;;;;;;;12.93;4.90;;;;;;;;;;4973656;28;20652;-68
2022/12/14 00:16:05;;;;;;;13.17;5.60;;;;;;;;;;5001676;28;20528;-68
2022/12/14 00:18:31;;;;;;;5.43;3.07;;;;;;;;;;5030151;28;20433;-68
2022/12/14 00:21:02;;;;;;;14.63;6.53;;;;;;;;;;5030053;28;20996;-68
2022/12/14 00:23:28;;;;;;;10.50;5.57;;;;;;;;;;5012680;28;20441;-68
2022/12/14 00:26:09;;;;;;;11.97;6.13;;;;;;;;;;5013636;28;20482;-68
2022/12/14 00:28:35;;;;;;;14.63;5.63;;;;;;;;;;5026468;28;20442;-68
2022/12/14 00:31:02;;;;;;;8.03;3.83;;;;;;;;;;5006977;28;20537;-68
2022/12/14 00:33:28;;;;;;;8.33;3.50;;;;;;;;;;5010010;28;20437;-68
2022/12/14 00:35:55;;;;;;;6.07;2.67;;;;;;;;;;4976507;28;20924;-68
2022/12/14 00:38:22;;;;;;;13.17;5.57;;;;;;;;;;4992495;28;20492;-68
2022/12/14 00:40:49;;;;;;;7.37;3.00;;;;;;;;;;5009846;28;20426;-68
2022/12/14 00:43:15;;;;;;;11.93;4.50;;;;;;;;;;5009810;28;20441;-68
2022/12/14 00:45:43;;;;;;;7.37;4.17;;;;;;;;;;5009645;28;20556;-68
2022/12/14 00:48:10;;;;;;;10.63;2.97;;;;;;;;;;4992272;28;20545;-68
2022/12/14 00:50:36;;;;;;;9.00;4.00;;;;;;;;;;4991757;28;20522;-68
2022/12/14 00:53:04;;;;;;;13.17;4.83;;;;;;;;;;5008906;28;20795;-68
2022/12/14 00:55:38;;;;;;;9.47;4.40;;;;;;;;;;4975918;28;20501;-68
2022/12/14 00:58:05;;;;;;;11.33;5.13;;;;;;;;;;5009764;28;21120;-68
2022/12/14 01:00:31;;;;;;;11.90;5.37;;;;;;;;;;5009587;28;20520;-68
2022/12/14 01:02:58;;;;;;;11.40;4.43;;;;;;;;;;5009770;28;20432;-68
2022/12/14 01:05:25;;;;;;;8.30;4.50;;;;;;;;;;4992218;28;21410;-68
2022/12/14 01:07:52;;;;;;;10.03;4.70;;;;;;;;;;4992218;28;20459;-68
2022/12/14 01:10:18;;;;;;;9.10;3.67;;;;;;;;;;5009392;28;20419;-69
2022/12/14 01:12:45;;;;;;;11.80;5.27;;;;;;;;;;5007602;28;20423;-69
2022/12/14 01:15:12;;;;;;;8.53;3.70;;;;;;;;;;4989933;28;20554;-68
2022/12/14 01:17:38;;;;;;;10.90;5.60;;;;;;;;;;5010997;28;20430;-68
2022/12/14 01:20:05;;;;;;;13.17;5.77;;;;;;;;;;5011780;28;20529;-68
2022/12/14 01:22:31;;;;;;;11.40;5.30;;;;;;;;;;5029127;28;20427;-68
2022/12/14 01:24:58;;;;;;;7.47;3.23;;;;;;;;;;5029004;28;20430;-68
2022/12/14 01:27:25;;;;;;;3.47;1.87;;;;;;;;;;5028968;28;20495;-68
2022/12/14 01:29:52;;;;;;;4.93;2.47;;;;;;;;;;5026485;28;20437;-68
2022/12/14 01:32:19;;;;;;;6.10;2.70;;;;;;;;;;4972784;28;20791;-68
2022/12/14 01:34:46;;;;;;;9.47;5.07;;;;;;;;;;4972601;28;20533;-68
2022/12/14 01:37:13;;;;;;;12.37;5.83;;;;;;;;;;4989724;28;20429;-68
2022/12/14 01:39:40;;;;;;;11.43;5.00;;;;;;;;;;4972687;28;20467;-69
2022/12/14 01:42:12;;;;;;;14.03;5.37;;;;;;;;;;4989520;28;21030;-68
2022/12/14 01:44:39;;;;;;;4.63;2.20;;;;;;;;;;4972683;28;20447;-68
2022/12/14 01:47:06;;;;;;;12.43;4.07;;;;;;;;;;4983526;28;20566;-68
2022/12/14 01:49:39;;;;;;;12.87;5.20;;;;;;;;;;4990544;28;20487;-68
2022/12/14 01:52:07;;;;;;;6.50;3.20;;;;;;;;;;4993165;28;20490;-68
2022/12/14 01:54:35;;;;;;;5.80;2.63;;;;;;;;;;4993556;28;20519;-68
2022/12/14 01:57:01;;;;;;;7.93;3.90;;;;;;;;;;4991620;28;20846;-68
2022/12/14 01:59:30;;;;;;;12.23;5.50;;;;;;;;;;4992232;28;20496;-69
2022/12/14 02:01:56;;;;;;;14.40;5.80;;;;;;;;;;4992228;28;20467;-68
2022/12/14 02:04:23;;;;;;;11.63;4.90;;;;;;;;;;4992974;28;20541;-69
2022/12/14 02:06:49;;;;;;;4.43;2.27;;;;;;;;;;4975723;28;20424;-68
2022/12/14 02:09:24;;;;;;;7.23;2.97;;;;;;;;;;4976583;28;20439;-68
2022/12/14 02:11:55;;;;;;;11.00;4.43;;;;;;;;;;4975713;28;20437;-68
2022/12/14 02:14:22;;;;;;;8.33;3.93;;;;;;;;;;4976308;28;20432;-68
2022/12/14 02:16:49;;;;;;;7.43;3.13;;;;;;;;;;5000133;28;20493;-68
2022/12/14 02:19:16;;;;;;;11.57;5.07;;;;;;;;;;5031828;28;20457;-69
2022/12/14 02:21:49;;;;;;;8.60;3.77;;;;;;;;;;5032251;28;20559;-68
2022/12/14 02:24:26;;;;;;;9.63;4.53;;;;;;;;;;4998200;28;20438;-69
2022/12/14 02:27:05;;;;;;;8.77;3.80;;;;;;;;;;5000138;28;20503;-68
2022/12/14 02:29:49;;;;;;;11.67;4.00;;;;;;;;;;4993073;28;20776;-68
2022/12/14 02:32:16;;;;;;;12.13;4.17;;;;;;;;;;4993030;28;20462;-68
2022/12/14 02:34:46;;;;;;;8.97;4.07;;;;;;;;;;4992603;28;20513;-68
2022/12/14 02:37:34;;;;;;;5.43;2.70;;;;;;;;;;4992608;28;20469;-68
2022/12/14 02:40:07;;;;;;;6.17;2.63;;;;;;;;;;4975085;28;20476;-68
2022/12/14 02:42:38;;;;;;;6.37;2.97;;;;;;;;;;4991720;28;20468;-68
2022/12/14 02:45:07;;;;;;;6.67;3.47;;;;;;;;;;4992440;28;20466;-68
2022/12/14 02:47:49;;;;;;;9.53;3.90;;;;;;;;;;4975290;28;20476;-68
2022/12/14 02:50:19;;;;;;;8.27;4.10;;;;;;;;;;4992740;28;20465;-68
2022/12/14 02:53:03;;;;;;;8.93;4.33;;;;;;;;;;4991948;28;20467;-68
2022/12/14 02:55:34;;;;;;;5.50;3.10;;;;;;;;;;4975118;28;20546;-68
2022/12/14 02:58:11;;;;;;;10.90;5.17;;;;;;;;;;4974824;28;20437;-68
2022/12/14 03:00:38;;;;;;;6.50;3.13;;;;;;;;;;4974913;28;20493;-68
2022/12/14 03:03:05;;;;;;;9.27;4.17;;;;;;;;;;4991257;28;20486;-68
2022/12/14 03:05:31;;;;;;;11.60;5.67;;;;;;;;;;4979862;28;20457;-68
2022/12/14 03:07:59;;;;;;;14.40;5.53;;;;;;;;;;4975371;28;20432;-68
2022/12/14 03:10:29;;;;;;;13.77;6.33;;;;;;;;;;4974717;28;20457;-68
2022/12/14 03:12:56;;;;;;;11.33;5.83;;;;;;;;;;4991919;28;20500;-68
2022/12/14 03:15:23;;;;;;;12.70;5.40;;;;;;;;;;4976396;28;20791;-68
2022/12/14 03:17:50;;;;;;;12.60;5.53;;;;;;;;;;5013396;28;20420;-68
2022/12/14 03:20:19;;;;;;;6.20;3.17;;;;;;;;;;5014359;28;21001;-68
2022/12/14 03:22:46;;;;;;;15.33;7.10;;;;;;;;;;5019559;28;20536;-68
2022/12/14 03:25:13;;;;;;;21.60;4.23;;;;;;;;;;4992043;28;20584;-68
2022/12/14 03:27:41;;;;;;;12.90;5.30;;;;;;;;;;4974594;28;20578;-69
2022/12/14 03:30:09;;;;;;;12.83;5.83;;;;;;;;;;4974159;28;20512;-68
2022/12/14 03:32:36;;;;;;;11.67;5.43;;;;;;;;;;4958647;28;20463;-69
2022/12/14 03:35:35;;;;;;;11.73;5.67;;;;;;;;;;4974546;28;20446;-70
2022/12/14 03:38:21;;;;;;;10.43;4.57;;;;;;;;;;4952642;28;20452;-70
2022/12/14 03:40:48;;;;;;;12.37;5.33;;;;;;;;;;4974466;28;20430;-70
2022/12/14 03:43:16;;;;;;;16.00;6.50;;;;;;;;;;4991432;28;20494;-70
2022/12/14 03:45:49;;;;;;;12.80;5.63;;;;;;;;;;4969454;28;20471;-70
2022/12/14 03:48:16;;;;;;;10.07;3.73;;;;;;;;;;5010983;28;20431;-71
2022/12/14 03:50:49;;;;;;;12.13;6.03;;;;;;;;;;5010757;28;20554;-70
2022/12/14 03:53:18;;;;;;;9.30;4.60;;;;;;;;;;5011142;28;20435;-70
2022/12/14 03:56:18;;;;;;;9.30;3.90;;;;;;;;;;4993153;28;20474;-71
2022/12/14 03:58:44;;;;;;;12.57;5.73;;;;;;;;;;5006170;28;20458;-70
2022/12/14 04:01:30;;;;;;;17.37;7.07;;;;;;;;;;5003642;28;20543;-70
2022/12/14 04:03:57;;;;;;;17.67;8.17;;;;;;;;;;4974074;28;20959;-70
2022/12/14 04:06:26;;;;;;;21.47;9.30;;;;;;;;;;4991359;28;20840;-70
2022/12/14 04:09:02;;;;;;;21.77;9.47;;;;;;;;;;4974075;28;20530;-70
2022/12/14 04:19:52;;;;;;;28.27;10.97;;;;;;;;;;5003632;28;20819;-70
2022/12/14 04:22:23;;;;;;;26.50;10.93;;;;;;;;;;5005837;28;20470;-70
2022/12/14 04:28:04;;;;;;;32.07;11.13;;;;;;;;;;5001137;28;20466;-70
2022/12/14 04:30:31;;;;;;;24.53;10.40;;;;;;;;;;5005961;28;20447;-70
2022/12/14 04:32:59;;;;;;;21.37;10.33;;;;;;;;;;5005435;28;20431;-70
2022/12/14 04:35:36;;;;;;;23.63;9.93;;;;;;;;;;5005461;28;20872;-70
2022/12/14 04:38:32;;;;;;;23.53;9.90;;;;;;;;;;5003816;28;20444;-70
2022/12/14 04:41:00;;;;;;;19.60;9.40;;;;;;;;;;4990308;28;20436;-71
2022/12/14 04:43:28;;;;;;;19.80;9.53;;;;;;;;;;4973009;28;20474;-71
2022/12/14 04:46:05;;;;;;;18.37;9.00;;;;;;;;;;4990147;28;20443;-71
2022/12/14 04:49:06;;;;;;;20.67;9.13;;;;;;;;;;4975589;28;20435;-71
2022/12/14 04:51:45;;;;;;;23.37;9.33;;;;;;;;;;4990005;28;20485;-70
2022/12/14 04:54:14;;;;;;;21.23;9.37;;;;;;;;;;4990370;28;20534;-71
2022/12/14 04:56:54;;;;;;;21.23;9.63;;;;;;;;;;4972814;28;20550;-71
2022/12/14 04:59:38;;;;;;;21.47;8.60;;;;;;;;;;4996059;28;20423;-70
2022/12/14 05:02:33;;;;;;;23.93;9.57;;;;;;;;;;5010096;28;20525;-70
2022/12/14 05:05:10;;;;;;;23.07;9.53;;;;;;;;;;4992602;28;20575;-73
2022/12/14 05:07:56;;;;;;;25.20;9.80;;;;;;;;;;4988057;28;20440;-68
2022/12/14 05:10:26;;;;;;;21.83;9.70;;;;;;;;;;5005959;28;20534;-69
2022/12/14 05:13:11;;;;;;;20.80;9.97;;;;;;;;;;5006159;28;20829;-71
2022/12/14 05:15:42;;;;;;;23.17;9.67;;;;;;;;;;5009793;28;20429;-68
2022/12/14 05:18:09;;;;;;;22.73;9.63;;;;;;;;;;4991406;28;20501;-71
2022/12/14 05:20:36;;;;;;;19.20;8.90;;;;;;;;;;5006375;28;20420;-69
2022/12/14 05:23:03;;;;;;;23.00;9.67;;;;;;;;;;5004961;28;20517;-74
2022/12/14 05:25:30;;;;;;;21.70;9.57;;;;;;;;;;4988070;28;20431;-76
2022/12/14 05:27:57;;;;;;;20.57;9.17;;;;;;;;;;4976122;28;20474;-73
2022/12/14 05:30:24;;;;;;;22.20;8.80;;;;;;;;;;4985443;28;21296;-75
2022/12/14 05:32:51;;;;;;;18.80;8.60;;;;;;;;;;4967234;28;20456;-70
2022/12/14 05:35:17;;;;;;;22.27;8.87;;;;;;;;;;4965843;28;20443;-71
2022/12/14 05:37:44;;;;;;;19.37;9.60;;;;;;;;;;4987437;28;20537;-70
2022/12/14 05:40:14;;;;;;;19.30;8.30;;;;;;;;;;5011088;28;20439;-71
2022/12/14 05:42:41;;;;;;;23.17;9.97;;;;;;;;;;4993004;28;20605;-71
2022/12/14 05:45:13;;;;;;;20.20;8.40;;;;;;;;;;4993516;28;20439;-71
2022/12/14 05:47:40;;;;;;;18.90;7.33;;;;;;;;;;4999417;28;20779;-71
2022/12/14 05:50:07;;;;;;;21.20;8.70;;;;;;;;;;4978396;28;20437;-74
2022/12/14 05:52:33;;;;;;;23.97;9.40;;;;;;;;;;5006695;28;20494;-74
2022/12/14 05:55:00;;;;;;;16.67;8.10;;;;;;;;;;4993172;28;20458;-74
2022/12/14 05:57:30;;;;;;;20.07;8.50;;;;;;;;;;5004709;28;20482;-73
2022/12/14 05:59:57;;;;;;;19.03;8.07;;;;;;;;;;4959386;28;20931;-74
2022/12/14 06:02:23;;;;;;;19.50;7.70;;;;;;;;;;5004423;28;20529;-72
2022/12/14 06:04:50;;;;;;;19.30;7.97;;;;;;;;;;5005471;28;20437;-72
2022/12/14 06:07:17;;;;;;;18.87;8.37;;;;;;;;;;4989949;28;20531;-72
2022/12/14 06:09:52;;;;;;;18.87;7.57;;;;;;;;;;4989615;28;20446;-71
2022/12/14 06:12:19;;;;;;;17.57;8.27;;;;;;;;;;5006909;28;20470;-72
2022/12/14 06:14:46;;;;;;;18.83;7.83;;;;;;;;;;4978597;28;20501;-71
2022/12/14 06:17:13;;;;;;;20.37;8.00;;;;;;;;;;4991470;28;21233;-72
2022/12/14 06:19:39;;;;;;;23.80;8.50;;;;;;;;;;5007473;28;20431;-72
2022/12/14 06:22:07;;;;;;;19.67;7.43;;;;;;;;;;5007752;28;20430;-72
2022/12/14 06:24:34;;;;;;;21.07;8.80;;;;;;;;;;5006217;28;20443;-72
2022/12/14 06:27:00;;;;;;;20.93;8.40;;;;;;;;;;5003088;28;20565;-71
2022/12/14 06:29:28;;;;;;;23.23;8.57;;;;;;;;;;5000427;28;20830;-71
2022/12/14 06:31:54;;;;;;;19.60;8.97;;;;;;;;;;4985410;28;20526;-71
2022/12/14 06:34:21;;;;;;;17.13;7.83;;;;;;;;;;5006577;28;20445;-71
2022/12/14 06:36:53;;;;;;;20.67;9.00;;;;;;;;;;5008908;28;20471;-72
2022/12/14 06:39:20;;;;;;;21.47;8.50;;;;;;;;;;4989205;28;21439;-71
2022/12/14 06:41:50;;;;;;;22.90;9.10;;;;;;;;;;5008930;28;20431;-72
2022/12/14 06:44:17;;;;;;;22.10;8.87;;;;;;;;;;5009628;28;20949;-71
2022/12/14 06:46:43;;;;;;;22.73;9.43;;;;;;;;;;5010462;28;20913;-71
2022/12/14 06:49:11;;;;;;;18.30;8.03;;;;;;;;;;5007404;28;20533;-71
2022/12/14 06:51:38;;;;;;;19.50;8.10;;;;;;;;;;4989541;28;20459;-70
2022/12/14 06:54:05;;;;;;;25.23;9.23;;;;;;;;;;4989231;28;20451;-73
2022/12/14 06:56:34;;;;;;;16.23;8.40;;;;;;;;;;4990510;28;20464;-72
2022/12/14 06:59:00;;;;;;;19.25;8.07;;;;;;;;;;4989375;28;20943;-72
2022/12/14 07:01:28;;;;;;;19.23;7.83;;;;;;;;;;4987154;28;20217;-72
2022/12/14 07:03:55;;;;;;;18.80;7.67;;;;;;;;;;4987274;28;20514;-72
2022/12/14 07:06:23;;;;;;;20.63;8.30;;;;;;;;;;4975487;28;20468;-72
2022/12/14 07:08:56;;;;;;;17.33;8.00;;;;;;;;;;4986968;28;20443;-70
2022/12/14 07:11:23;;;;;;;20.30;8.30;;;;;;;;;;4971496;28;20452;-70
2022/12/14 07:13:50;;;;;;;16.90;7.27;;;;;;;;;;4975383;28;20432;-67
2022/12/14 07:16:18;;;;;;;23.77;7.87;;;;;;;;;;4995581;28;20530;-71
2022/12/14 07:18:44;;;;;;;22.87;8.53;;;;;;;;;;4999482;28;20436;-71
2022/12/14 07:21:12;;;;;;;20.93;9.50;;;;;;;;;;4989737;28;20431;-71
2022/12/14 07:23:39;;;;;;;27.13;10.73;;;;;;;;;;4978793;28;20444;-70
2022/12/14 07:26:07;;;;;;;16.23;7.70;;;;;;;;;;4981227;28;20439;-70
2022/12/14 07:28:35;;;;;;;21.70;8.50;;;;;;;;;;4985470;28;21100;-70
2022/12/14 07:31:02;;;;;;;19.00;9.23;;;;;;;;;;4986789;28;20507;-70
2022/12/14 07:33:29;;;;;;;18.90;8.90;;;;;;;;;;4982472;28;20509;-70
2022/12/14 07:36:02;;;;;;;20.87;9.50;;;;;;;;;;4966461;28;20480;-70
2022/12/14 07:38:29;;;;;;;23.80;9.30;;;;;;;;;;4973314;28;20479;-70
2022/12/14 07:41:25;;;;;;;21.47;9.07;;;;;;;;;;4988541;28;20516;-68
2022/12/14 07:43:53;;;;;;;20.90;8.43;;;;;;;;;;4987950;28;20482;-71
2022/12/14 07:46:20;;;;;;;18.13;8.60;;;;;;;;;;4965448;28;20495;-70
2022/12/14 07:48:47;;;;;;;19.70;9.77;;;;;;;;;;4975213;28;20791;-72
2022/12/14 07:51:16;;;;;;;22.43;8.40;;;;;;;;;;4971020;28;20480;-70
2022/12/14 07:53:43;;;;;;;20.03;9.27;;;;;;;;;;4990127;28;20449;-72
2022/12/14 07:56:10;;;;;;;26.30;9.47;;;;;;;;;;4990204;28;20476;-76
2022/12/14 07:58:37;;;;;;;24.43;8.93;;;;;;;;;;4983654;28;20471;-70
2022/12/14 08:01:11;;;;;;;21.07;9.07;;;;;;;;;;4987449;28;20436;-74
2022/12/14 08:03:42;;;;;;;18.57;9.10;;;;;;;;;;4990479;28;20458;-75
2022/12/14 08:06:09;;;;;;;20.00;8.63;;;;;;;;;;4978230;28;20480;-76
2022/12/14 08:08:36;;;;;;;20.73;8.83;;;;;;;;;;4968665;28;20448;-76
2022/12/14 08:11:03;;;;;;;23.87;9.70;;;;;;;;;;4970013;28;20481;-75
2022/12/14 08:13:30;;;;;;;20.80;9.53;;;;;;;;;;4990806;28;20471;-75
2022/12/14 08:16:04;;;;;;;21.73;9.27;;;;;;;;;;4989514;28;20450;-75
2022/12/14 08:18:32;;;;;;;16.60;8.00;;;;;;;;;;4985965;28;21081;-75
2022/12/14 08:21:01;;;;;;;16.17;8.77;;;;;;;;;;4982641;28;20478;-74
2022/12/14 08:23:28;;;;;;;15.30;8.53;;;;;;;;;;4987280;28;20443;-70
2022/12/14 08:25:55;;;;;;;14.70;8.67;;;;;;;;;;4990024;28;20443;-75
2022/12/14 08:28:23;;;;;;;17.77;9.20;;;;;;;;;;4983867;28;20440;-73
2022/12/14 08:30:49;;;;;;;14.27;7.77;;;;;;;;;;4987847;28;20436;-74
2022/12/14 08:33:17;;;;;;;14.43;7.57;;;;;;;;;;4970872;28;20455;-71
2022/12/14 08:35:44;;;;;;;15.07;7.97;;;;;;;;;;4986200;28;21025;-71
2022/12/14 08:38:10;;;;;;;17.63;7.60;;;;;;;;;;4971193;28;20474;-71
2022/12/14 08:40:38;;;;;;;13.13;7.40;;;;;;;;;;4986239;28;20447;-70
2022/12/14 08:43:05;;;;;;;9.83;4.40;;;;;;;;;;4972216;28;21279;-70
2022/12/14 08:45:32;;;;;;;19.40;8.57;;;;;;;;;;4986513;28;20435;-72
2022/12/14 08:47:59;;;;;;;13.27;6.00;;;;;;;;;;4986424;28;20546;-69
2022/12/14 08:50:26;;;;;;;16.10;8.33;;;;;;;;;;4983700;28;20447;-70
2022/12/14 08:52:53;;;;;;;13.70;5.60;;;;;;;;;;4990300;28;20952;-68
2022/12/14 08:55:20;;;;;;;12.13;6.87;;;;;;;;;;4998064;28;20462;-70
2022/12/14 08:57:55;;;;;;;8.57;4.33;;;;;;;;;;4991897;28;21056;-70
2022/12/14 09:00:25;;;;;;;18.63;7.77;;;;;;;;;;4989614;28;20453;-68
2022/12/14 09:02:53;;;;;;;18.57;7.73;;;;;;;;;;4990086;28;20456;-69
2022/12/14 09:05:19;;;;;;;12.07;5.97;;;;;;;;;;4990201;28;20535;-67
2022/12/14 09:07:46;;;;;;;10.00;4.80;;;;;;;;;;5006584;28;20435;-68
2022/12/14 09:10:13;;;;;;;16.33;7.80;;;;;;;;;;4992338;28;20468;-68
2022/12/14 09:12:42;;;;;;;17.87;8.57;;;;;;;;;;5009354;28;21126;-69
2022/12/14 09:15:08;;;;;;;19.27;9.50;;;;;;;;;;5003329;28;20440;-69
2022/12/14 09:17:35;;;;;;;13.83;5.93;;;;;;;;;;4993379;28;20501;-68
2022/12/14 09:20:02;;;;;;;14.83;7.67;;;;;;;;;;5029349;28;20529;-68
2022/12/14 09:22:29;;;;;;;17.53;9.30;;;;;;;;;;4995281;28;20431;-69
2022/12/14 09:24:55;;;;;;;12.77;6.07;;;;;;;;;;5029392;28;20964;-68
2022/12/14 09:27:22;;;;;;;11.00;5.13;;;;;;;;;;5011278;28;20433;-68
2022/12/14 09:29:49;;;;;;;20.33;7.90;;;;;;;;;;5006862;28;20609;-69
2022/12/14 09:32:15;;;;;;;13.47;6.50;;;;;;;;;;4992913;28;20439;-69
2022/12/14 09:34:42;;;;;;;15.23;5.97;;;;;;;;;;4992004;28;20954;-69
2022/12/14 09:37:09;;;;;;;10.00;5.00;;;;;;;;;;4991431;28;20993;-69
2022/12/14 09:39:36;;;;;;;13.60;5.67;;;;;;;;;;4994336;28;20455;-69
2022/12/14 09:42:10;;;;;;;18.97;9.57;;;;;;;;;;4989357;28;20835;-69
2022/12/14 09:44:46;;;;;;;9.07;4.73;;;;;;;;;;4972743;28;20749;-69
2022/12/14 09:47:19;;;;;;;16.30;6.83;;;;;;;;;;4989987;28;20435;-69
2022/12/14 09:49:46;;;;;;;13.70;5.67;;;;;;;;;;4989523;28;21175;-69
2022/12/14 09:52:19;;;;;;;15.70;7.83;;;;;;;;;;4989456;28;20471;-69
2022/12/14 09:54:46;;;;;;;22.33;10.40;;;;;;;;;;4972363;28;20572;-69
2022/12/14 09:57:28;;;;;;;22.60;10.30;;;;;;;;;;4989211;28;20467;-69
2022/12/14 09:59:54;;;;;;;20.20;8.67;;;;;;;;;;4972700;28;20435;-70
2022/12/14 10:02:25;;;;;;;18.53;8.90;;;;;;;;;;4972132;28;20498;-70
2022/12/14 10:05:10;;;;;;;17.77;6.67;;;;;;;;;;4973508;28;20526;-70
2022/12/14 10:07:36;;;;;;;29.73;13.00;;;;;;;;;;4989618;28;20431;-69
2022/12/14 10:10:20;;;;;;;15.20;5.40;;;;;;;;;;4989623;28;20466;-69
2022/12/14 10:12:59;;;;;;;9.77;4.27;;;;;;;;;;4975442;28;20788;-69
2022/12/14 10:15:26;;;;;;;13.30;5.20;;;;;;;;;;4995695;28;20864;-69
2022/12/14 10:17:58;;;;;;;31.83;12.90;;;;;;;;;;5021010;28;20560;-70
2022/12/14 10:20:31;;;;;;;33.90;11.77;;;;;;;;;;4993379;28;20557;-69
2022/12/14 10:22:58;;;;;;;33.03;12.97;;;;;;;;;;4975502;28;20480;-70
2022/12/14 10:25:25;;;;;;;28.57;12.37;;;;;;;;;;4959739;28;20480;-69
2022/12/14 10:27:55;;;;;;;28.07;13.13;;;;;;;;;;4975767;28;20493;-69
2022/12/14 10:30:39;;;;;;;21.83;8.37;;;;;;;;;;4978295;28;21147;-69
2022/12/14 10:33:25;;;;;;;7.27;4.00;;;;;;;;;;4992982;28;21191;-69
2022/12/14 10:35:52;;;;;;;15.40;7.80;;;;;;;;;;4992687;28;20449;-69
2022/12/14 10:38:22;;;;;;;21.07;9.23;;;;;;;;;;4992950;28;20506;-69
2022/12/14 10:40:49;;;;;;;21.57;9.07;;;;;;;;;;4992812;28;20439;-69
2022/12/14 10:43:28;;;;;;;14.17;6.67;;;;;;;;;;4975341;28;20971;-69
2022/12/14 10:46:13;;;;;;;14.13;5.90;;;;;;;;;;5002932;28;20452;-69
2022/12/14 10:48:54;;;;;;;29.23;10.73;;;;;;;;;;4992271;28;20537;-69
2022/12/14 10:51:24;;;;;;;13.50;4.17;;;;;;;;;;4975241;28;20486;-69
2022/12/14 10:54:09;;;;;;;11.70;5.47;;;;;;;;;;4975236;28;20424;-69
2022/12/14 10:56:37;;;;;;;12.93;6.67;;;;;;;;;;4992590;28;21010;-69
2022/12/14 10:59:09;;;;;;;11.63;4.63;;;;;;;;;;4992645;28;20460;-69
2022/12/14 11:01:36;;;;;;;15.63;7.30;;;;;;;;;;4992596;28;20938;-69
2022/12/14 11:04:02;;;;;;;25.27;9.77;;;;;;;;;;4992152;28;20994;-69
2022/12/14 11:06:29;;;;;;;35.03;12.23;;;;;;;;;;4974864;28;20475;-68
2022/12/14 11:08:56;;;;;;;14.53;5.63;;;;;;;;;;4975105;28;20482;-68
2022/12/14 11:11:23;;;;;;;24.70;9.07;;;;;;;;;;4974097;28;20973;-68
2022/12/14 11:13:51;;;;;;;16.00;6.03;;;;;;;;;;4973677;28;20838;-68
2022/12/14 11:16:22;;;;;;;22.13;7.07;;;;;;;;;;5008721;28;20431;-68
2022/12/14 11:18:56;;;;;;;32.33;12.63;;;;;;;;;;5013660;28;20471;-69
2022/12/14 11:21:27;;;;;;;17.43;8.57;;;;;;;;;;5013845;28;20843;-69
2022/12/14 11:23:54;;;;;;;28.17;11.90;;;;;;;;;;5030477;28;21329;-68
2022/12/14 11:26:24;;;;;;;13.47;7.07;;;;;;;;;;5031142;28;20458;-68
2022/12/14 11:28:52;;;;;;;17.23;7.57;;;;;;;;;;5014193;28;20435;-68
2022/12/14 11:31:19;;;;;;;18.83;7.47;;;;;;;;;;4978998;28;20548;-68
2022/12/14 11:33:46;;;;;;;16.63;5.93;;;;;;;;;;4991622;28;20448;-69
2022/12/14 11:36:23;;;;;;;19.67;8.23;;;;;;;;;;4975015;28;20956;-69
2022/12/14 11:38:53;;;;;;;19.57;7.83;;;;;;;;;;4958249;28;20568;-68
2022/12/14 11:41:20;;;;;;;21.03;9.13;;;;;;;;;;4974601;28;20466;-68
2022/12/14 11:43:46;;;;;;;9.23;4.43;;;;;;;;;;4974076;28;21142;-69
2022/12/14 11:46:13;;;;;;;16.67;6.97;;;;;;;;;;4958767;28;20442;-68
2022/12/14 11:48:45;;;;;;;19.33;8.23;;;;;;;;;;4974031;28;20437;-69
2022/12/14 11:51:12;;;;;;;24.33;11.13;;;;;;;;;;4974256;28;20477;-68
2022/12/14 11:53:40;;;;;;;18.57;8.00;;;;;;;;;;4973856;28;21001;-69
2022/12/14 11:56:09;;;;;;;7.33;3.40;;;;;;;;;;4974344;28;20442;-69
2022/12/14 11:58:37;;;;;;;24.90;9.90;;;;;;;;;;4973945;28;20484;-69
2022/12/14 12:01:14;;;;;;;18.60;7.33;;;;;;;;;;4991226;28;20436;-69
2022/12/14 12:03:41;;;;;;;21.53;9.13;;;;;;;;;;4988005;28;20449;-69
2022/12/14 12:06:09;;;;;;;15.73;6.10;;;;;;;;;;4957637;28;20946;-69
2022/12/14 12:08:37;;;;;;;26.57;9.93;;;;;;;;;;4990972;28;20517;-69
2022/12/14 12:11:05;;;;;;;14.03;7.20;;;;;;;;;;4974138;28;20489;-69
2022/12/14 12:13:34;;;;;;;18.40;6.67;;;;;;;;;;4973617;28;20931;-69
2022/12/14 12:16:04;;;;;;;21.57;9.87;;;;;;;;;;4974631;28;20529;-69
2022/12/14 12:18:40;;;;;;;26.50;12.00;;;;;;;;;;4990841;28;20474;-69
2022/12/14 12:21:15;;;;;;;18.90;8.03;;;;;;;;;;4974495;28;20812;-68
2022/12/14 12:23:50;;;;;;;14.10;6.23;;;;;;;;;;4990678;28;20460;-69
2022/12/14 12:26:20;;;;;;;17.83;7.90;;;;;;;;;;4991088;28;20521;-69
2022/12/14 12:28:52;;;;;;;23.07;11.23;;;;;;;;;;4973425;28;20432;-69
2022/12/14 12:31:23;;;;;;;13.13;5.93;;;;;;;;;;4990591;28;20434;-69
2022/12/14 12:33:55;;;;;;;16.43;7.30;;;;;;;;;;4987554;28;20508;-69
2022/12/14 12:36:21;;;;;;;12.97;5.97;;;;;;;;;;4992681;28;20475;-68
2022/12/14 12:38:52;;;;;;;20.93;7.87;;;;;;;;;;4991212;28;20908;-69
2022/12/14 12:41:28;;;;;;;16.13;6.70;;;;;;;;;;5008272;28;20454;-69
2022/12/14 12:43:59;;;;;;;20.53;8.30;;;;;;;;;;4975299;28;20441;-69
2022/12/14 12:46:27;;;;;;;23.43;10.17;;;;;;;;;;4971115;28;20456;-68
2022/12/14 12:49:02;;;;;;;23.20;8.97;;;;;;;;;;4973066;28;20510;-69
2022/12/14 12:51:30;;;;;;;12.93;5.33;;;;;;;;;;4972790;28;20453;-69
2022/12/14 12:54:05;;;;;;;20.93;8.70;;;;;;;;;;4990347;28;20786;-69
2022/12/14 12:56:42;;;;;;;8.47;3.67;;;;;;;;;;4973324;28;20427;-69
2022/12/14 12:59:23;;;;;;;14.40;7.23;;;;;;;;;;4973985;28;20478;-69
2022/12/14 13:01:51;;;;;;;8.23;4.37;;;;;;;;;;4973086;28;20816;-69
2022/12/14 13:04:26;;;;;;;10.27;4.93;;;;;;;;;;4990219;28;20559;-69
2022/12/14 13:06:54;;;;;;;24.27;9.53;;;;;;;;;;4957101;28;20452;-69
2022/12/14 13:09:34;;;;;;;12.37;4.23;;;;;;;;;;4972729;28;20434;-69
2022/12/14 13:12:01;;;;;;;21.67;8.73;;;;;;;;;;4989838;28;20503;-69
2022/12/14 13:14:30;;;;;;;21.67;9.30;;;;;;;;;;5005171;28;20443;-69
2022/12/14 13:17:01;;;;;;;14.10;7.03;;;;;;;;;;5005941;28;20430;-69
2022/12/14 13:19:31;;;;;;;23.17;10.37;;;;;;;;;;4995673;28;21034;-69
2022/12/14 13:22:17;;;;;;;9.47;4.30;;;;;;;;;;5014761;28;20439;-68
2022/12/14 13:24:44;;;;;;;11.97;6.13;;;;;;;;;;5011950;28;20510;-69
2022/12/14 13:27:17;;;;;;;21.63;9.30;;;;;;;;;;4995649;28;20439;-69
2022/12/14 13:30:03;;;;;;;9.40;4.23;;;;;;;;;;5029362;28;20424;-69
2022/12/14 13:32:35;;;;;;;13.23;6.60;;;;;;;;;;5029454;28;20516;-69
2022/12/14 13:35:03;;;;;;;11.40;5.13;;;;;;;;;;4990418;28;20448;-68
2022/12/14 13:37:38;;;;;;;18.67;7.53;;;;;;;;;;4991433;28;20436;-71
2022/12/14 13:40:24;;;;;;;13.00;4.57;;;;;;;;;;4968141;28;20552;-69
2022/12/14 13:42:58;;;;;;;23.77;10.03;;;;;;;;;;4992787;28;20977;-71
2022/12/14 13:45:29;;;;;;;20.73;9.17;;;;;;;;;;4999291;28;20447;-69
2022/12/14 13:47:55;;;;;;;16.10;7.80;;;;;;;;;;4991993;28;21352;-69
2022/12/14 13:50:27;;;;;;;13.90;6.40;;;;;;;;;;5009754;28;20433;-72
2022/12/14 13:53:05;;;;;;;27.77;11.30;;;;;;;;;;4993128;28;20527;-68
2022/12/14 13:55:36;;;;;;;24.50;9.80;;;;;;;;;;5002339;28;20456;-69
2022/12/14 13:58:08;;;;;;;27.33;10.93;;;;;;;;;;4988644;28;20465;-71
2022/12/14 14:00:44;;;;;;;29.00;12.03;;;;;;;;;;5006947;28;20767;-66
2022/12/14 14:03:34;;;;;;;13.47;6.73;;;;;;;;;;5018354;28;20483;-69
2022/12/14 14:06:04;;;;;;;28.77;11.93;;;;;;;;;;4971014;28;20981;-66
2022/12/14 14:08:32;;;;;;;31.63;12.93;;;;;;;;;;5007454;28;20439;-68
2022/12/14 14:11:22;;;;;;;22.97;10.53;;;;;;;;;;4994283;28;20437;-72
2022/12/14 14:14:17;;;;;;;27.33;10.77;;;;;;;;;;5006186;28;20451;-69
2022/12/14 14:16:45;;;;;;;27.57;10.80;;;;;;;;;;5000251;28;20806;-69
2022/12/14 14:19:19;;;;;;;24.33;9.07;;;;;;;;;;4992536;28;20479;-69
2022/12/14 14:21:49;;;;;;;32.40;12.27;;;;;;;;;;4972199;28;20467;-70
2022/12/14 14:24:58;;;;;;;24.73;11.20;;;;;;;;;;5009493;28;20444;-70
2022/12/14 14:27:26;;;;;;;29.20;12.03;;;;;;;;;;5009246;28;20453;-70
2022/12/14 14:29:53;;;;;;;26.40;12.33;;;;;;;;;;5009729;28;20543;-70
2022/12/14 14:32:30;;;;;;;27.70;12.10;;;;;;;;;;4992335;28;20511;-70
2022/12/14 14:34:56;;;;;;;32.30;12.53;;;;;;;;;;5009508;28;20500;-70
2022/12/14 14:37:24;;;;;;;29.57;11.10;;;;;;;;;;4988609;28;20510;-70
2022/12/14 14:40:05;;;;;;;34.17;12.80;;;;;;;;;;4973134;28;20512;-71
2022/12/14 14:42:58;;;;;;;32.53;13.60;;;;;;;;;;4979471;28;20542;-70
2022/12/14 14:45:31;;;;;;;32.90;13.43;;;;;;;;;;4994056;28;20451;-70
2022/12/14 14:47:59;;;;;;;31.10;14.20;;;;;;;;;;5004006;28;20439;-69
2022/12/14 14:50:28;;;;;;;32.20;11.97;;;;;;;;;;4993502;28;20436;-69
2022/12/14 14:52:58;;;;;;;33.97;13.03;;;;;;;;;;4993646;28;20526;-69
2022/12/14 14:55:27;;;;;;;35.57;14.00;;;;;;;;;;5005573;28;20452;-69
2022/12/14 14:58:21;;;;;;;31.60;13.57;;;;;;;;;;5010891;28;20445;-69
2022/12/14 15:00:52;;;;;;;33.50;13.80;;;;;;;;;;5009877;28;20473;-69
2022/12/14 15:03:21;;;;;;;28.07;12.87;;;;;;;;;;5003072;28;20455;-70